Aérodrome :
LOGIN :

S'inscrire | Disclaimer

   EN    FR    IT 

 










Légende :    VFR   VFR Marginal   IFR   IFR Intensif   IFR Très Intensif
Visi : 
Plafond : 
>= 8 km
>= 3000ft
5 à 8 km
1000 à 3000 ft
1500m à 5 km
500 à 1000 ft
800 à 1500m
200 à 500 ft
< 800m
< 200 ft
Symboles :   Orages  Brouillard  Fortes neiges  Fortes précipitations  Vent > 20 kt
SIGMETs :   Divers  Orages  Givrage  Turbulence  Onde Orograph.  Cendres Volcan.






- Altitude de l'aérodrome : 245 ft
- Code IATA : BIQ


LFBZ - Biarritz

DERNIER METAR :
  • 132000Z AUTO 26004KT 230V290 9999 SCT025 OVC045 21/16 Q1019 NOSIG

METARs EXPIRÉS :
  • 131930Z AUTO 27003KT 230V320 9999 FEW024 OVC046 21/16 Q1019 NOSIG
  • 131900Z AUTO 27005KT 9999 SCT023 OVC044 21/16 Q1019 NOSIG
  • 131830Z AUTO 29006KT 9999 SCT022 OVC044 21/16 Q1019 NOSIG
  • 131800Z AUTO 28006KT 250V310 9999 FEW022 BKN045 21/16 Q1018 NOSIG
  • 131730Z AUTO 27008KT 240V300 9999 SCT022 SCT043 21/16 Q1018 NOSIG

TAF TAF LFBZ
Valide du 13 à 18h jusqu'au 14 à 18h UTC


131700Z 1318/1418 29010KT 9999 BKN021 BKN046
BECMG 1323/1401 16004KT
BECMG 1409/1411 CAVOK
BECMG 1412/1414 36010KT



MET'MAP, la Météo Aéronautique d'un coup d'oeil ! - Copyright ORBIFLY Décembre 2007 - Disclaimer

ORBIFLY MET'MAP TEAM :

Programmation & Développement : Alexandra Zaïnal
Sur une idée originale de : Baudouin d'Aumeries
Assistance à la programmation : Marc-Olivier Méhu
Soutien technique & logistique : Manuel Goepfert

Contact : metmap@orbifly.com




SOURCES & CREDITS :

   NOAA